Santurtzi, Spain
Current Conditions -  °F | °C
As of 11:30 PM on Friday 19 Dec 2014 (Local Time) from LEBB Reporting Station
Broken Clouds Broken Clouds  
Wind Chill: 11°   Ceiling: 3500
Heat Index: 11°   Visibility: 6mi
Dew Point:   Wind: 0mph
Humidity: 82%   Direction: NA
Pressure: 30.53"   Gusts: NA
Location:  43.33°N, 3.03°W
Report Text: LEBB 192230Z 00000KT 9999 SCT030 BKN035 11/08 Q1034 NOSIG
Loading
Personal Weather Stations






























Interactive Weather Map New forecast layout! Learn more

10-Day Weather Forecast

Advertisements
Track Severe Weather on mobile